sensor_id;sensor_type;location;lat;lon;timestamp;P1;durP1;ratioP1;P2;durP2;ratioP2
34643;SDS011;26931;43.498;-1.506;2023-04-25T00:01:31;3.38;;;3.08;;
34643;SDS011;26931;43.498;-1.506;2023-04-25T00:04:01;8.52;;;3.95;;
34643;SDS011;26931;43.498;-1.506;2023-04-25T00:06:27;5.88;;;3.50;;
34643;SDS011;26931;43.498;-1.506;2023-04-25T00:08:56;4.43;;;3.08;;
34643;SDS011;26931;43.498;-1.506;2023-04-25T00:11:22;3.83;;;3.25;;
34643;SDS011;26931;43.498;-1.506;2023-04-25T00:13:49;3.67;;;3.03;;
34643;SDS011;26931;43.498;-1.506;2023-04-25T00:16:19;5.18;;;3.17;;
34643;SDS011;26931;43.498;-1.506;2023-04-25T00:18:45;7.32;;;3.28;;
34643;SDS011;26931;43.498;-1.506;2023-04-25T00:21:16;5.70;;;3.35;;
34643;SDS011;26931;43.498;-1.506;2023-04-25T00:23:43;5.88;;;3.67;;
34643;SDS011;26931;43.498;-1.506;2023-04-25T00:26:10;6.45;;;3.10;;
34643;SDS011;26931;43.498;-1.506;2023-04-25T00:28:37;5.88;;;3.78;;
34643;SDS011;26931;43.498;-1.506;2023-04-25T00:31:04;6.00;;;4.10;;
34643;SDS011;26931;43.498;-1.506;2023-04-25T00:33:30;5.15;;;4.05;;
34643;SDS011;26931;43.498;-1.506;2023-04-25T00:35:56;5.18;;;3.92;;
34643;SDS011;26931;43.498;-1.506;2023-04-25T00:38:23;7.70;;;3.90;;
34643;SDS011;26931;43.498;-1.506;2023-04-25T00:40:49;7.40;;;4.07;;
34643;SDS011;26931;43.498;-1.506;2023-04-25T00:43:15;5.20;;;3.20;;
34643;SDS011;26931;43.498;-1.506;2023-04-25T00:45:40;3.20;;;2.90;;
34643;SDS011;26931;43.498;-1.506;2023-04-25T00:48:08;5.53;;;3.10;;
34643;SDS011;26931;43.498;-1.506;2023-04-25T00:50:34;6.80;;;3.80;;
34643;SDS011;26931;43.498;-1.506;2023-04-25T00:53:01;4.70;;;3.42;;
34643;SDS011;26931;43.498;-1.506;2023-04-25T00:55:28;5.10;;;3.25;;
34643;SDS011;26931;43.498;-1.506;2023-04-25T00:57:56;6.03;;;3.88;;
34643;SDS011;26931;43.498;-1.506;2023-04-25T01:00:22;4.57;;;3.85;;
34643;SDS011;26931;43.498;-1.506;2023-04-25T01:02:48;6.07;;;3.85;;
34643;SDS011;26931;43.498;-1.506;2023-04-25T01:05:15;7.30;;;4.00;;
34643;SDS011;26931;43.498;-1.506;2023-04-25T01:07:41;7.57;;;3.15;;
34643;SDS011;26931;43.498;-1.506;2023-04-25T01:10:07;5.43;;;3.05;;
34643;SDS011;26931;43.498;-1.506;2023-04-25T01:12:33;6.25;;;3.65;;
34643;SDS011;26931;43.498;-1.506;2023-04-25T01:14:59;6.47;;;3.50;;
34643;SDS011;26931;43.498;-1.506;2023-04-25T01:17:25;6.65;;;3.22;;
34643;SDS011;26931;43.498;-1.506;2023-04-25T01:19:52;7.63;;;3.38;;
34643;SDS011;26931;43.498;-1.506;2023-04-25T01:22:18;5.05;;;3.10;;
34643;SDS011;26931;43.498;-1.506;2023-04-25T01:24:44;5.10;;;3.25;;
34643;SDS011;26931;43.498;-1.506;2023-04-25T01:27:11;6.90;;;3.33;;
34643;SDS011;26931;43.498;-1.506;2023-04-25T01:29:37;7.32;;;3.65;;
34643;SDS011;26931;43.498;-1.506;2023-04-25T01:32:04;4.72;;;3.63;;
34643;SDS011;26931;43.498;-1.506;2023-04-25T01:34:31;5.05;;;3.35;;
34643;SDS011;26931;43.498;-1.506;2023-04-25T01:36:56;4.93;;;3.40;;
34643;SDS011;26931;43.498;-1.506;2023-04-25T01:39:25;4.97;;;3.58;;
34643;SDS011;26931;43.498;-1.506;2023-04-25T01:41:50;5.22;;;3.42;;
34643;SDS011;26931;43.498;-1.506;2023-04-25T01:44:16;4.10;;;3.30;;
34643;SDS011;26931;43.498;-1.506;2023-04-25T01:46:42;5.03;;;3.25;;
34643;SDS011;26931;43.498;-1.506;2023-04-25T01:49:08;6.10;;;3.58;;
34643;SDS011;26931;43.498;-1.506;2023-04-25T01:51:34;6.55;;;4.28;;
34643;SDS011;26931;43.498;-1.506;2023-04-25T01:54:00;4.00;;;3.30;;
34643;SDS011;26931;43.498;-1.506;2023-04-25T01:56:32;5.88;;;3.88;;
34643;SDS011;26931;43.498;-1.506;2023-04-25T01:59:01;4.55;;;3.38;;
34643;SDS011;26931;43.498;-1.506;2023-04-25T02:01:28;5.00;;;3.55;;
34643;SDS011;26931;43.498;-1.506;2023-04-25T02:03:54;7.15;;;3.40;;
34643;SDS011;26931;43.498;-1.506;2023-04-25T02:06:20;4.07;;;3.30;;
34643;SDS011;26931;43.498;-1.506;2023-04-25T02:08:46;4.72;;;3.15;;
34643;SDS011;26931;43.498;-1.506;2023-04-25T02:11:12;4.20;;;3.33;;
34643;SDS011;26931;43.498;-1.506;2023-04-25T02:13:39;5.30;;;4.07;;
34643;SDS011;26931;43.498;-1.506;2023-04-25T02:16:05;9.23;;;4.15;;
34643;SDS011;26931;43.498;-1.506;2023-04-25T02:18:31;4.57;;;3.80;;
34643;SDS011;26931;43.498;-1.506;2023-04-25T02:21:00;4.68;;;3.38;;
34643;SDS011;26931;43.498;-1.506;2023-04-25T02:23:26;4.22;;;3.58;;
34643;SDS011;26931;43.498;-1.506;2023-04-25T02:25:53;5.32;;;3.38;;
34643;SDS011;26931;43.498;-1.506;2023-04-25T02:28:20;4.40;;;3.53;;
34643;SDS011;26931;43.498;-1.506;2023-04-25T02:30:46;7.28;;;4.07;;
34643;SDS011;26931;43.498;-1.506;2023-04-25T02:33:11;4.57;;;4.07;;
34643;SDS011;26931;43.498;-1.506;2023-04-25T02:35:37;4.32;;;3.60;;
34643;SDS011;26931;43.498;-1.506;2023-04-25T02:38:03;4.75;;;3.83;;
34643;SDS011;26931;43.498;-1.506;2023-04-25T02:40:29;5.18;;;3.38;;
34643;SDS011;26931;43.498;-1.506;2023-04-25T02:42:55;6.45;;;3.90;;
34643;SDS011;26931;43.498;-1.506;2023-04-25T02:45:21;3.88;;;3.47;;
34643;SDS011;26931;43.498;-1.506;2023-04-25T02:47:47;5.78;;;3.95;;
34643;SDS011;26931;43.498;-1.506;2023-04-25T02:50:12;5.25;;;3.88;;
34643;SDS011;26931;43.498;-1.506;2023-04-25T02:52:38;5.35;;;4.07;;
34643;SDS011;26931;43.498;-1.506;2023-04-25T02:55:04;6.53;;;3.70;;
34643;SDS011;26931;43.498;-1.506;2023-04-25T02:57:30;5.22;;;3.92;;
34643;SDS011;26931;43.498;-1.506;2023-04-25T02:59:56;7.88;;;3.80;;
34643;SDS011;26931;43.498;-1.506;2023-04-25T03:02:22;4.80;;;4.30;;
34643;SDS011;26931;43.498;-1.506;2023-04-25T03:04:48;7.60;;;4.18;;
34643;SDS011;26931;43.498;-1.506;2023-04-25T03:07:14;4.50;;;4.10;;
34643;SDS011;26931;43.498;-1.506;2023-04-25T03:09:40;6.18;;;4.10;;
34643;SDS011;26931;43.498;-1.506;2023-04-25T03:12:06;7.35;;;4.30;;
34643;SDS011;26931;43.498;-1.506;2023-04-25T03:14:32;7.20;;;4.65;;
34643;SDS011;26931;43.498;-1.506;2023-04-25T03:16:58;6.85;;;4.00;;
34643;SDS011;26931;43.498;-1.506;2023-04-25T03:19:24;5.53;;;4.78;;
34643;SDS011;26931;43.498;-1.506;2023-04-25T03:21:50;8.88;;;4.38;;
34643;SDS011;26931;43.498;-1.506;2023-04-25T03:24:16;5.93;;;4.30;;
34643;SDS011;26931;43.498;-1.506;2023-04-25T03:26:42;6.65;;;4.30;;
34643;SDS011;26931;43.498;-1.506;2023-04-25T03:29:08;4.47;;;4.00;;
34643;SDS011;26931;43.498;-1.506;2023-04-25T03:31:34;6.60;;;3.95;;
34643;SDS011;26931;43.498;-1.506;2023-04-25T03:34:00;5.00;;;4.50;;
34643;SDS011;26931;43.498;-1.506;2023-04-25T03:36:26;6.15;;;3.92;;
34643;SDS011;26931;43.498;-1.506;2023-04-25T03:38:52;6.20;;;4.05;;
34643;SDS011;26931;43.498;-1.506;2023-04-25T03:41:18;6.45;;;4.50;;
34643;SDS011;26931;43.498;-1.506;2023-04-25T03:43:45;8.25;;;4.28;;
34643;SDS011;26931;43.498;-1.506;2023-04-25T03:46:10;5.70;;;5.03;;
34643;SDS011;26931;43.498;-1.506;2023-04-25T03:48:36;7.78;;;4.68;;
34643;SDS011;26931;43.498;-1.506;2023-04-25T03:51:02;6.38;;;4.53;;
34643;SDS011;26931;43.498;-1.506;2023-04-25T03:53:28;6.40;;;4.75;;
34643;SDS011;26931;43.498;-1.506;2023-04-25T03:55:54;4.53;;;4.13;;
34643;SDS011;26931;43.498;-1.506;2023-04-25T03:58:19;5.95;;;4.43;;
34643;SDS011;26931;43.498;-1.506;2023-04-25T04:00:45;5.57;;;4.60;;
34643;SDS011;26931;43.498;-1.506;2023-04-25T04:03:11;7.13;;;4.72;;
34643;SDS011;26931;43.498;-1.506;2023-04-25T04:05:37;6.78;;;5.30;;
34643;SDS011;26931;43.498;-1.506;2023-04-25T04:08:05;5.60;;;4.95;;
34643;SDS011;26931;43.498;-1.506;2023-04-25T04:10:32;5.70;;;4.65;;
34643;SDS011;26931;43.498;-1.506;2023-04-25T04:12:58;7.18;;;4.90;;
34643;SDS011;26931;43.498;-1.506;2023-04-25T04:15:24;7.25;;;5.25;;
34643;SDS011;26931;43.498;-1.506;2023-04-25T04:17:50;6.55;;;4.82;;
34643;SDS011;26931;43.498;-1.506;2023-04-25T04:20:16;6.47;;;4.80;;
34643;SDS011;26931;43.498;-1.506;2023-04-25T04:22:42;7.93;;;5.78;;
34643;SDS011;26931;43.498;-1.506;2023-04-25T04:25:08;7.07;;;4.70;;
34643;SDS011;26931;43.498;-1.506;2023-04-25T04:27:35;6.40;;;5.00;;
34643;SDS011;26931;43.498;-1.506;2023-04-25T04:30:01;6.65;;;4.78;;
34643;SDS011;26931;43.498;-1.506;2023-04-25T04:32:28;6.35;;;5.32;;
34643;SDS011;26931;43.498;-1.506;2023-04-25T04:34:55;7.03;;;5.72;;
34643;SDS011;26931;43.498;-1.506;2023-04-25T04:37:21;7.35;;;5.50;;
34643;SDS011;26931;43.498;-1.506;2023-04-25T04:39:47;9.77;;;6.07;;
34643;SDS011;26931;43.498;-1.506;2023-04-25T04:42:13;9.05;;;6.35;;
34643;SDS011;26931;43.498;-1.506;2023-04-25T04:44:39;9.23;;;5.72;;
34643;SDS011;26931;43.498;-1.506;2023-04-25T04:47:05;6.85;;;5.53;;
34643;SDS011;26931;43.498;-1.506;2023-04-25T04:49:31;8.10;;;5.80;;
34643;SDS011;26931;43.498;-1.506;2023-04-25T04:51:57;12.65;;;6.38;;
34643;SDS011;26931;43.498;-1.506;2023-04-25T04:54:25;7.82;;;5.80;;
34643;SDS011;26931;43.498;-1.506;2023-04-25T04:56:52;9.13;;;5.80;;
34643;SDS011;26931;43.498;-1.506;2023-04-25T04:59:18;8.65;;;6.40;;
34643;SDS011;26931;43.498;-1.506;2023-04-25T05:01:44;8.15;;;6.40;;
34643;SDS011;26931;43.498;-1.506;2023-04-25T05:04:11;6.43;;;5.63;;
34643;SDS011;26931;43.498;-1.506;2023-04-25T05:06:37;7.72;;;6.40;;
34643;SDS011;26931;43.498;-1.506;2023-04-25T05:09:03;10.57;;;6.50;;
34643;SDS011;26931;43.498;-1.506;2023-04-25T05:11:29;7.07;;;6.25;;
34643;SDS011;26931;43.498;-1.506;2023-04-25T05:13:55;6.80;;;5.90;;
34643;SDS011;26931;43.498;-1.506;2023-04-25T05:16:21;6.72;;;6.13;;
34643;SDS011;26931;43.498;-1.506;2023-04-25T05:18:47;7.30;;;6.60;;
34643;SDS011;26931;43.498;-1.506;2023-04-25T05:21:13;7.90;;;6.45;;
34643;SDS011;26931;43.498;-1.506;2023-04-25T05:23:38;6.95;;;5.80;;
34643;SDS011;26931;43.498;-1.506;2023-04-25T05:26:04;10.23;;;6.28;;
34643;SDS011;26931;43.498;-1.506;2023-04-25T05:28:30;8.23;;;7.35;;
34643;SDS011;26931;43.498;-1.506;2023-04-25T05:30:56;8.63;;;6.85;;
34643;SDS011;26931;43.498;-1.506;2023-04-25T05:33:23;7.63;;;6.93;;
34643;SDS011;26931;43.498;-1.506;2023-04-25T05:35:49;7.72;;;6.80;;
34643;SDS011;26931;43.498;-1.506;2023-04-25T05:38:15;10.43;;;7.18;;
34643;SDS011;26931;43.498;-1.506;2023-04-25T05:40:41;9.52;;;7.35;;
34643;SDS011;26931;43.498;-1.506;2023-04-25T05:43:07;9.93;;;7.65;;
34643;SDS011;26931;43.498;-1.506;2023-04-25T05:45:33;9.82;;;7.28;;
34643;SDS011;26931;43.498;-1.506;2023-04-25T05:47:59;8.63;;;7.82;;
34643;SDS011;26931;43.498;-1.506;2023-04-25T05:50:25;8.25;;;7.32;;
34643;SDS011;26931;43.498;-1.506;2023-04-25T05:52:51;7.60;;;6.70;;
34643;SDS011;26931;43.498;-1.506;2023-04-25T05:55:17;7.03;;;6.15;;
34643;SDS011;26931;43.498;-1.506;2023-04-25T05:57:43;7.00;;;5.82;;
34643;SDS011;26931;43.498;-1.506;2023-04-25T06:00:11;7.70;;;5.90;;
34643;SDS011;26931;43.498;-1.506;2023-04-25T06:02:38;6.90;;;6.20;;
34643;SDS011;26931;43.498;-1.506;2023-04-25T06:05:04;8.02;;;6.53;;
34643;SDS011;26931;43.498;-1.506;2023-04-25T06:07:30;6.22;;;5.63;;
34643;SDS011;26931;43.498;-1.506;2023-04-25T06:09:56;9.40;;;6.93;;
34643;SDS011;26931;43.498;-1.506;2023-04-25T06:12:22;7.80;;;6.60;;
34643;SDS011;26931;43.498;-1.506;2023-04-25T06:14:49;8.15;;;6.30;;
34643;SDS011;26931;43.498;-1.506;2023-04-25T06:17:14;9.18;;;6.68;;
34643;SDS011;26931;43.498;-1.506;2023-04-25T06:19:40;9.02;;;5.97;;
34643;SDS011;26931;43.498;-1.506;2023-04-25T06:22:07;8.43;;;6.18;;
34643;SDS011;26931;43.498;-1.506;2023-04-25T06:24:33;9.13;;;6.40;;
34643;SDS011;26931;43.498;-1.506;2023-04-25T06:26:59;5.40;;;4.90;;
34643;SDS011;26931;43.498;-1.506;2023-04-25T06:29:25;6.05;;;5.43;;
34643;SDS011;26931;43.498;-1.506;2023-04-25T06:31:51;6.68;;;5.35;;
34643;SDS011;26931;43.498;-1.506;2023-04-25T06:34:17;5.95;;;5.00;;
34643;SDS011;26931;43.498;-1.506;2023-04-25T06:36:43;6.25;;;5.63;;
34643;SDS011;26931;43.498;-1.506;2023-04-25T06:39:09;7.70;;;6.18;;
34643;SDS011;26931;43.498;-1.506;2023-04-25T06:41:36;7.55;;;5.88;;
34643;SDS011;26931;43.498;-1.506;2023-04-25T06:44:02;6.63;;;5.63;;
34643;SDS011;26931;43.498;-1.506;2023-04-25T06:46:28;7.22;;;5.93;;
34643;SDS011;26931;43.498;-1.506;2023-04-25T06:48:54;8.63;;;6.50;;
34643;SDS011;26931;43.498;-1.506;2023-04-25T06:51:20;8.88;;;6.90;;
34643;SDS011;26931;43.498;-1.506;2023-04-25T06:53:46;10.15;;;6.10;;
34643;SDS011;26931;43.498;-1.506;2023-04-25T06:56:12;11.82;;;6.53;;
34643;SDS011;26931;43.498;-1.506;2023-04-25T06:58:38;9.77;;;6.55;;
34643;SDS011;26931;43.498;-1.506;2023-04-25T07:01:04;8.15;;;5.90;;
34643;SDS011;26931;43.498;-1.506;2023-04-25T07:03:30;8.93;;;6.22;;
34643;SDS011;26931;43.498;-1.506;2023-04-25T07:05:56;10.20;;;5.80;;
34643;SDS011;26931;43.498;-1.506;2023-04-25T07:08:22;8.63;;;6.18;;
34643;SDS011;26931;43.498;-1.506;2023-04-25T07:10:47;8.93;;;5.53;;
34643;SDS011;26931;43.498;-1.506;2023-04-25T07:13:13;8.45;;;5.90;;
34643;SDS011;26931;43.498;-1.506;2023-04-25T07:15:39;6.25;;;4.95;;
34643;SDS011;26931;43.498;-1.506;2023-04-25T07:18:05;5.40;;;4.88;;
34643;SDS011;26931;43.498;-1.506;2023-04-25T07:20:31;6.60;;;4.93;;
34643;SDS011;26931;43.498;-1.506;2023-04-25T07:22:57;6.30;;;5.07;;
34643;SDS011;26931;43.498;-1.506;2023-04-25T07:25:23;5.28;;;4.57;;
34643;SDS011;26931;43.498;-1.506;2023-04-25T07:27:50;6.05;;;4.88;;
34643;SDS011;26931;43.498;-1.506;2023-04-25T07:30:15;7.57;;;5.07;;
34643;SDS011;26931;43.498;-1.506;2023-04-25T07:32:41;6.28;;;4.88;;
34643;SDS011;26931;43.498;-1.506;2023-04-25T07:35:07;8.98;;;4.90;;
34643;SDS011;26931;43.498;-1.506;2023-04-25T07:37:34;8.65;;;5.07;;
34643;SDS011;26931;43.498;-1.506;2023-04-25T07:40:01;7.78;;;5.00;;
34643;SDS011;26931;43.498;-1.506;2023-04-25T07:42:28;7.30;;;5.30;;
34643;SDS011;26931;43.498;-1.506;2023-04-25T07:44:54;6.68;;;5.13;;
34643;SDS011;26931;43.498;-1.506;2023-04-25T07:47:20;7.93;;;4.97;;
34643;SDS011;26931;43.498;-1.506;2023-04-25T07:49:46;5.85;;;4.40;;
34643;SDS011;26931;43.498;-1.506;2023-04-25T07:52:12;5.30;;;4.22;;
34643;SDS011;26931;43.498;-1.506;2023-04-25T07:54:38;4.45;;;3.95;;
34643;SDS011;26931;43.498;-1.506;2023-04-25T07:57:03;4.93;;;4.38;;
34643;SDS011;26931;43.498;-1.506;2023-04-25T07:59:31;7.20;;;4.07;;
34643;SDS011;26931;43.498;-1.506;2023-04-25T08:01:57;4.13;;;3.72;;
34643;SDS011;26931;43.498;-1.506;2023-04-25T08:04:24;6.00;;;3.92;;
34643;SDS011;26931;43.498;-1.506;2023-04-25T08:06:50;5.50;;;3.60;;
34643;SDS011;26931;43.498;-1.506;2023-04-25T08:09:19;6.28;;;3.95;;
34643;SDS011;26931;43.498;-1.506;2023-04-25T08:11:45;7.10;;;4.50;;
34643;SDS011;26931;43.498;-1.506;2023-04-25T08:14:12;7.22;;;4.38;;
34643;SDS011;26931;43.498;-1.506;2023-04-25T08:16:38;6.97;;;4.45;;
34643;SDS011;26931;43.498;-1.506;2023-04-25T08:19:04;6.72;;;4.47;;
34643;SDS011;26931;43.498;-1.506;2023-04-25T08:21:30;9.73;;;4.68;;
34643;SDS011;26931;43.498;-1.506;2023-04-25T08:23:57;6.50;;;4.22;;
34643;SDS011;26931;43.498;-1.506;2023-04-25T08:26:27;7.40;;;5.00;;
34643;SDS011;26931;43.498;-1.506;2023-04-25T08:28:54;8.43;;;4.93;;
34643;SDS011;26931;43.498;-1.506;2023-04-25T08:31:19;9.27;;;5.07;;
34643;SDS011;26931;43.498;-1.506;2023-04-25T08:33:45;10.43;;;6.20;;
34643;SDS011;26931;43.498;-1.506;2023-04-25T08:36:12;7.82;;;5.45;;
34643;SDS011;26931;43.498;-1.506;2023-04-25T08:38:38;8.32;;;5.47;;
34643;SDS011;26931;43.498;-1.506;2023-04-25T08:41:04;10.02;;;5.28;;
34643;SDS011;26931;43.498;-1.506;2023-04-25T08:43:31;9.23;;;5.00;;
34643;SDS011;26931;43.498;-1.506;2023-04-25T08:46:01;6.97;;;5.18;;
34643;SDS011;26931;43.498;-1.506;2023-04-25T08:48:27;5.88;;;4.82;;
34643;SDS011;26931;43.498;-1.506;2023-04-25T08:50:54;7.47;;;5.03;;
34643;SDS011;26931;43.498;-1.506;2023-04-25T08:53:22;7.13;;;5.55;;
34643;SDS011;26931;43.498;-1.506;2023-04-25T08:55:53;7.65;;;4.88;;
34643;SDS011;26931;43.498;-1.506;2023-04-25T08:58:20;6.55;;;5.22;;
34643;SDS011;26931;43.498;-1.506;2023-04-25T09:00:47;7.55;;;5.53;;
34643;SDS011;26931;43.498;-1.506;2023-04-25T09:03:13;8.70;;;6.13;;
34643;SDS011;26931;43.498;-1.506;2023-04-25T09:05:40;12.23;;;7.53;;
34643;SDS011;26931;43.498;-1.506;2023-04-25T09:08:07;6.53;;;5.95;;
34643;SDS011;26931;43.498;-1.506;2023-04-25T09:10:33;7.32;;;6.22;;
34643;SDS011;26931;43.498;-1.506;2023-04-25T09:15:49;9.07;;;6.70;;
34643;SDS011;26931;43.498;-1.506;2023-04-25T09:18:26;9.77;;;6.88;;
34643;SDS011;26931;43.498;-1.506;2023-04-25T09:20:57;7.75;;;6.95;;
34643;SDS011;26931;43.498;-1.506;2023-04-25T09:23:41;7.20;;;6.50;;
34643;SDS011;26931;43.498;-1.506;2023-04-25T09:26:10;8.70;;;6.15;;
34643;SDS011;26931;43.498;-1.506;2023-04-25T09:28:40;6.93;;;6.22;;
34643;SDS011;26931;43.498;-1.506;2023-04-25T09:31:09;8.82;;;6.60;;
34643;SDS011;26931;43.498;-1.506;2023-04-25T09:33:40;9.52;;;6.97;;
34643;SDS011;26931;43.498;-1.506;2023-04-25T09:36:09;9.45;;;7.00;;
34643;SDS011;26931;43.498;-1.506;2023-04-25T09:38:42;8.95;;;6.43;;
34643;SDS011;26931;43.498;-1.506;2023-04-25T09:41:09;9.70;;;6.68;;
34643;SDS011;26931;43.498;-1.506;2023-04-25T09:43:36;8.65;;;6.60;;
34643;SDS011;26931;43.498;-1.506;2023-04-25T09:46:07;9.23;;;6.18;;
34643;SDS011;26931;43.498;-1.506;2023-04-25T09:48:34;7.88;;;5.75;;
34643;SDS011;26931;43.498;-1.506;2023-04-25T09:51:05;6.82;;;5.93;;
34643;SDS011;26931;43.498;-1.506;2023-04-25T09:53:36;8.57;;;6.60;;
34643;SDS011;26931;43.498;-1.506;2023-04-25T09:56:03;7.95;;;5.68;;
34643;SDS011;26931;43.498;-1.506;2023-04-25T09:58:31;7.25;;;4.90;;
34643;SDS011;26931;43.498;-1.506;2023-04-25T10:00:59;4.93;;;4.43;;
34643;SDS011;26931;43.498;-1.506;2023-04-25T10:03:29;7.22;;;5.28;;
34643;SDS011;26931;43.498;-1.506;2023-04-25T10:05:58;7.88;;;5.32;;
34643;SDS011;26931;43.498;-1.506;2023-04-25T10:08:28;6.07;;;5.40;;
34643;SDS011;26931;43.498;-1.506;2023-04-25T10:11:03;9.63;;;5.88;;
34643;SDS011;26931;43.498;-1.506;2023-04-25T10:13:30;8.80;;;5.45;;
34643;SDS011;26931;43.498;-1.506;2023-04-25T10:15:57;6.57;;;4.35;;
34643;SDS011;26931;43.498;-1.506;2023-04-25T10:18:25;5.05;;;3.85;;
34643;SDS011;26931;43.498;-1.506;2023-04-25T10:20:56;5.15;;;3.92;;
34643;SDS011;26931;43.498;-1.506;2023-04-25T10:23:26;3.58;;;3.15;;
34643;SDS011;26931;43.498;-1.506;2023-04-25T10:25:53;3.65;;;3.30;;
34643;SDS011;26931;43.498;-1.506;2023-04-25T10:28:20;3.28;;;3.00;;
34643;SDS011;26931;43.498;-1.506;2023-04-25T10:31:06;3.25;;;2.95;;
34643;SDS011;26931;43.498;-1.506;2023-04-25T10:33:34;4.47;;;3.58;;
34643;SDS011;26931;43.498;-1.506;2023-04-25T10:36:14;3.60;;;3.30;;
34643;SDS011;26931;43.498;-1.506;2023-04-25T10:38:46;3.70;;;3.40;;
34643;SDS011;26931;43.498;-1.506;2023-04-25T10:41:14;3.50;;;3.20;;
34643;SDS011;26931;43.498;-1.506;2023-04-25T10:43:43;3.50;;;3.20;;
34643;SDS011;26931;43.498;-1.506;2023-04-25T10:46:15;3.25;;;3.05;;
34643;SDS011;26931;43.498;-1.506;2023-04-25T10:48:48;3.47;;;2.42;;
34643;SDS011;26931;43.498;-1.506;2023-04-25T10:51:19;3.20;;;2.50;;
34643;SDS011;26931;43.498;-1.506;2023-04-25T10:56:24;3.65;;;2.40;;
34643;SDS011;26931;43.498;-1.506;2023-04-25T10:58:52;3.75;;;2.60;;
34643;SDS011;26931;43.498;-1.506;2023-04-25T11:01:41;3.72;;;2.47;;
34643;SDS011;26931;43.498;-1.506;2023-04-25T11:06:58;3.95;;;3.55;;
34643;SDS011;26931;43.498;-1.506;2023-04-25T11:09:39;8.50;;;6.55;;
34643;SDS011;26931;43.498;-1.506;2023-04-25T11:12:07;9.98;;;6.70;;
34643;SDS011;26931;43.498;-1.506;2023-04-25T11:14:35;8.27;;;5.78;;
34643;SDS011;26931;43.498;-1.506;2023-04-25T11:17:01;5.80;;;4.03;;
34643;SDS011;26931;43.498;-1.506;2023-04-25T11:19:27;4.88;;;3.92;;
34643;SDS011;26931;43.498;-1.506;2023-04-25T11:21:57;3.90;;;3.50;;
34643;SDS011;26931;43.498;-1.506;2023-04-25T11:24:26;4.53;;;3.50;;
34643;SDS011;26931;43.498;-1.506;2023-04-25T11:26:53;3.92;;;3.10;;
34643;SDS011;26931;43.498;-1.506;2023-04-25T11:29:21;3.83;;;3.35;;
34643;SDS011;26931;43.498;-1.506;2023-04-25T11:31:54;3.58;;;3.15;;
34643;SDS011;26931;43.498;-1.506;2023-04-25T11:34:23;3.83;;;3.42;;
34643;SDS011;26931;43.498;-1.506;2023-04-25T11:36:53;3.33;;;3.03;;
34643;SDS011;26931;43.498;-1.506;2023-04-25T11:39:19;4.65;;;3.50;;
34643;SDS011;26931;43.498;-1.506;2023-04-25T11:41:46;8.60;;;3.42;;
34643;SDS011;26931;43.498;-1.506;2023-04-25T11:44:14;5.68;;;3.63;;
34643;SDS011;26931;43.498;-1.506;2023-04-25T11:46:44;4.40;;;3.40;;
34643;SDS011;26931;43.498;-1.506;2023-04-25T11:49:11;6.43;;;4.40;;
34643;SDS011;26931;43.498;-1.506;2023-04-25T11:51:44;6.68;;;4.60;;
34643;SDS011;26931;43.498;-1.506;2023-04-25T11:54:11;6.63;;;4.97;;
34643;SDS011;26931;43.498;-1.506;2023-04-25T11:56:41;9.40;;;4.75;;
34643;SDS011;26931;43.498;-1.506;2023-04-25T11:59:07;5.00;;;4.20;;
34643;SDS011;26931;43.498;-1.506;2023-04-25T12:01:37;8.13;;;4.50;;
34643;SDS011;26931;43.498;-1.506;2023-04-25T12:04:11;5.00;;;3.75;;
34643;SDS011;26931;43.498;-1.506;2023-04-25T12:06:42;6.68;;;4.03;;
34643;SDS011;26931;43.498;-1.506;2023-04-25T12:09:11;5.55;;;3.53;;
34643;SDS011;26931;43.498;-1.506;2023-04-25T12:11:43;8.32;;;4.35;;
34643;SDS011;26931;43.498;-1.506;2023-04-25T12:14:11;4.05;;;3.47;;
34643;SDS011;26931;43.498;-1.506;2023-04-25T12:16:41;4.15;;;3.70;;
34643;SDS011;26931;43.498;-1.506;2023-04-25T12:19:15;4.07;;;3.22;;
34643;SDS011;26931;43.498;-1.506;2023-04-25T12:21:42;5.32;;;3.30;;
34643;SDS011;26931;43.498;-1.506;2023-04-25T12:24:10;5.60;;;3.80;;
34643;SDS011;26931;43.498;-1.506;2023-04-25T12:26:53;6.53;;;3.83;;
34643;SDS011;26931;43.498;-1.506;2023-04-25T12:29:23;5.28;;;4.10;;
34643;SDS011;26931;43.498;-1.506;2023-04-25T12:31:50;7.90;;;3.72;;
34643;SDS011;26931;43.498;-1.506;2023-04-25T12:34:17;5.75;;;4.15;;
34643;SDS011;26931;43.498;-1.506;2023-04-25T12:36:45;4.30;;;3.40;;
34643;SDS011;26931;43.498;-1.506;2023-04-25T12:39:15;5.40;;;3.90;;
34643;SDS011;26931;43.498;-1.506;2023-04-25T12:41:51;5.03;;;3.50;;
34643;SDS011;26931;43.498;-1.506;2023-04-25T12:44:20;4.03;;;3.15;;
34643;SDS011;26931;43.498;-1.506;2023-04-25T12:46:47;5.15;;;3.50;;
34643;SDS011;26931;43.498;-1.506;2023-04-25T12:49:13;5.50;;;3.80;;
34643;SDS011;26931;43.498;-1.506;2023-04-25T12:51:39;7.00;;;3.80;;
34643;SDS011;26931;43.498;-1.506;2023-04-25T12:54:06;5.05;;;3.50;;
34643;SDS011;26931;43.498;-1.506;2023-04-25T12:56:33;4.05;;;3.30;;
34643;SDS011;26931;43.498;-1.506;2023-04-25T12:59:00;5.32;;;3.67;;
34643;SDS011;26931;43.498;-1.506;2023-04-25T13:01:28;5.28;;;4.10;;
34643;SDS011;26931;43.498;-1.506;2023-04-25T13:03:54;6.68;;;3.95;;
34643;SDS011;26931;43.498;-1.506;2023-04-25T13:06:20;7.55;;;4.28;;
34643;SDS011;26931;43.498;-1.506;2023-04-25T13:08:47;5.18;;;3.70;;
34643;SDS011;26931;43.498;-1.506;2023-04-25T13:11:13;4.15;;;3.50;;
34643;SDS011;26931;43.498;-1.506;2023-04-25T13:13:40;4.63;;;3.67;;
34643;SDS011;26931;43.498;-1.506;2023-04-25T13:16:06;7.97;;;4.03;;
34643;SDS011;26931;43.498;-1.506;2023-04-25T13:18:32;6.25;;;4.18;;
34643;SDS011;26931;43.498;-1.506;2023-04-25T13:20:59;5.68;;;3.67;;
34643;SDS011;26931;43.498;-1.506;2023-04-25T13:23:27;5.97;;;3.92;;
34643;SDS011;26931;43.498;-1.506;2023-04-25T13:25:54;5.65;;;3.80;;
34643;SDS011;26931;43.498;-1.506;2023-04-25T13:28:20;6.43;;;3.72;;
34643;SDS011;26931;43.498;-1.506;2023-04-25T13:30:46;6.60;;;3.80;;
34643;SDS011;26931;43.498;-1.506;2023-04-25T13:33:13;8.52;;;3.85;;
34643;SDS011;26931;43.498;-1.506;2023-04-25T13:35:40;5.90;;;4.00;;
34643;SDS011;26931;43.498;-1.506;2023-04-25T13:38:06;5.78;;;3.55;;
34643;SDS011;26931;43.498;-1.506;2023-04-25T13:40:32;5.80;;;3.90;;
34643;SDS011;26931;43.498;-1.506;2023-04-25T13:42:58;5.70;;;3.90;;
34643;SDS011;26931;43.498;-1.506;2023-04-25T13:45:24;5.30;;;4.07;;
34643;SDS011;26931;43.498;-1.506;2023-04-25T13:47:50;6.07;;;4.30;;
34643;SDS011;26931;43.498;-1.506;2023-04-25T13:50:16;6.03;;;4.15;;
34643;SDS011;26931;43.498;-1.506;2023-04-25T13:52:42;7.32;;;4.25;;
34643;SDS011;26931;43.498;-1.506;2023-04-25T13:55:08;6.53;;;4.10;;
34643;SDS011;26931;43.498;-1.506;2023-04-25T13:57:35;4.55;;;3.83;;
34643;SDS011;26931;43.498;-1.506;2023-04-25T14:00:02;6.95;;;4.07;;
34643;SDS011;26931;43.498;-1.506;2023-04-25T14:02:37;8.57;;;4.70;;
34643;SDS011;26931;43.498;-1.506;2023-04-25T14:05:04;6.10;;;5.10;;
34643;SDS011;26931;43.498;-1.506;2023-04-25T14:07:30;6.78;;;5.35;;
34643;SDS011;26931;43.498;-1.506;2023-04-25T14:09:57;6.43;;;4.72;;
34643;SDS011;26931;43.498;-1.506;2023-04-25T14:12:23;8.38;;;5.18;;
34643;SDS011;26931;43.498;-1.506;2023-04-25T14:14:49;8.77;;;5.38;;
34643;SDS011;26931;43.498;-1.506;2023-04-25T14:17:15;8.68;;;5.28;;
34643;SDS011;26931;43.498;-1.506;2023-04-25T14:19:41;10.32;;;5.72;;
34643;SDS011;26931;43.498;-1.506;2023-04-25T14:22:10;8.95;;;5.57;;
34643;SDS011;26931;43.498;-1.506;2023-04-25T14:24:37;7.82;;;5.68;;
34643;SDS011;26931;43.498;-1.506;2023-04-25T14:27:03;9.30;;;4.88;;
34643;SDS011;26931;43.498;-1.506;2023-04-25T14:29:29;7.82;;;5.35;;
34643;SDS011;26931;43.498;-1.506;2023-04-25T14:31:56;8.95;;;4.68;;
34643;SDS011;26931;43.498;-1.506;2023-04-25T14:34:23;8.05;;;5.75;;
34643;SDS011;26931;43.498;-1.506;2023-04-25T14:36:50;8.88;;;5.50;;
34643;SDS011;26931;43.498;-1.506;2023-04-25T14:39:17;9.73;;;6.00;;
34643;SDS011;26931;43.498;-1.506;2023-04-25T14:41:43;8.98;;;5.63;;